Time;durP1;ratioP1;P1;durP2;ratioP2;P2;SDS_P1;SDS_P2;PMS_P1;PMS_P2;Temp;Humidity;BMP_temperature;BMP_pressure;BME280_temperature;BME280_humidity;BME280_pressure;Samples;Min_cycle;Max_cycle;Signal;HPM_P1;HPM_P2
2023/01/05 00:03:18;;;;;;;7.25;6.35;;;;;;;6.64;91.76;99446.66;3452642;82;21086;-77
2023/01/05 00:08:09;;;;;;;7.67;6.97;;;;;;;6.68;91.91;99439.39;3382627;82;20877;-77
2023/01/05 00:23:21;;;;;;;7.70;6.60;;;;;;;6.80;91.81;99419.30;3454465;82;21094;-77
2023/01/05 00:28:12;;;;;;;5.80;4.87;;;;;;;6.82;91.78;99420.19;3397628;82;21012;-77
2023/01/05 00:33:10;;;;;;;17.67;7.15;;;;;;;6.86;92.19;99401.70;3371481;82;21141;-78
2023/01/05 00:38:01;;;;;;;9.85;6.35;;;;;;;6.92;92.10;99400.91;3467047;82;21465;-77
2023/01/05 00:42:52;;;;;;;7.72;6.62;;;;;;;6.95;92.08;99395.78;3389892;82;21887;-78
2023/01/05 00:47:43;;;;;;;6.35;5.75;;;;;;;6.98;92.24;99389.36;3421870;82;20925;-78
2023/01/05 00:52:35;;;;;;;6.80;6.20;;;;;;;7.01;92.10;99377.73;3441156;81;21129;-78
2023/01/05 00:57:26;;;;;;;6.97;6.35;;;;;;;7.07;92.52;99371.34;3392553;82;21501;-78
2023/01/05 01:02:18;;;;;;;5.58;5.08;;;;;;;7.12;92.42;99380.42;3454649;80;20924;-77
2023/01/05 01:07:10;;;;;;;6.12;5.53;;;;;;;7.13;92.36;99368.81;3468318;81;22302;-78
2023/01/05 01:12:02;;;;;;;6.75;6.05;;;;;;;7.16;92.08;99362.38;3459156;81;20961;-78
2023/01/05 01:16:53;;;;;;;6.97;6.12;;;;;;;7.18;92.19;99351.63;3486007;81;23346;-78
2023/01/05 01:21:44;;;;;;;7.12;6.10;;;;;;;7.20;92.22;99340.88;3502564;81;21035;-77
2023/01/05 01:26:35;;;;;;;6.42;5.85;;;;;;;7.18;92.30;99327.51;3481168;81;20933;-78
2023/01/05 01:31:27;;;;;;;7.15;5.87;;;;;;;7.22;92.22;99325.38;3477197;81;20947;-77
2023/01/05 01:36:18;;;;;;;5.60;4.95;;;;;;;7.23;92.78;99324.09;3447709;81;21382;-78
2023/01/05 01:41:11;;;;;;;5.83;4.92;;;;;;;7.21;92.49;99309.01;3493359;80;22055;-78
2023/01/05 01:46:02;;;;;;;6.42;4.90;;;;;;;7.24;92.33;99304.28;3461828;81;21015;-78
2023/01/05 01:50:54;;;;;;;5.40;4.90;;;;;;;7.23;92.40;99293.08;3443080;81;20972;-77
2023/01/05 01:55:46;;;;;;;5.35;4.85;;;;;;;7.25;92.63;99279.73;3413603;81;21027;-79
2023/01/05 02:00:41;;;;;;;4.87;4.47;;;;;;;7.25;92.45;99281.03;3438506;80;21564;-78
2023/01/05 02:05:35;;;;;;;5.35;4.85;;;;;;;7.27;92.54;99271.14;3476227;80;22783;-78
2023/01/05 02:10:57;;;;;;;4.97;4.53;;;;;;;7.28;92.47;99263.80;3502923;80;20999;-78
2023/01/05 02:16:02;;;;;;;3.95;3.60;;;;;;;7.30;92.81;99262.09;3507602;80;20952;-77
2023/01/05 02:21:21;;;;;;;3.95;3.45;;;;;;;7.33;92.79;99256.95;3490885;80;21430;-77
2023/01/05 02:26:41;;;;;;;4.45;3.67;;;;;;;7.35;92.57;99256.52;3508771;80;20978;-77
2023/01/05 02:32:10;;;;;;;4.83;4.12;;;;;;;7.33;92.61;99247.46;3536389;80;21296;-77
2023/01/05 02:37:27;;;;;;;3.77;3.02;;;;;;;7.38;92.82;99247.50;3511219;79;20999;-77
2023/01/05 02:42:25;;;;;;;3.50;3.20;;;;;;;7.41;93.22;99249.67;3496144;80;21011;-77
2023/01/05 02:47:31;;;;;;;4.12;3.47;;;;;;;7.47;93.19;99250.14;3520640;80;21442;-77
2023/01/05 02:52:25;;;;;;;4.17;2.83;;;;;;;7.50;93.06;99242.41;3494758;80;20928;-77
2023/01/05 02:57:46;;;;;;;3.33;2.75;;;;;;;7.56;93.44;99238.55;3468154;80;23257;-77
2023/01/05 03:02:42;;;;;;;3.40;3.10;;;;;;;7.57;93.05;99229.95;3493434;80;20999;-77
2023/01/05 03:07:38;;;;;;;3.05;2.85;;;;;;;7.62;92.95;99210.14;3500624;80;20956;-78
2023/01/05 03:17:50;;;;;;;4.05;3.70;;;;;;;7.67;93.19;99206.70;3517589;79;20988;-78
2023/01/05 03:38:42;;;;;;;3.45;3.15;;;;;;;7.75;93.19;99180.02;3365337;84;21106;-78
2023/01/05 03:43:36;;;;;;;3.40;3.10;;;;;;;7.77;93.09;99173.55;3364079;83;20943;-77
2023/01/05 03:48:28;;;;;;;3.98;3.50;;;;;;;7.79;93.33;99173.13;3322137;84;22283;-78
2023/01/05 03:53:20;;;;;;;4.30;3.08;;;;;;;7.80;93.11;99176.16;3319075;84;21035;-77
2023/01/05 03:58:11;;;;;;;2.60;2.40;;;;;;;7.76;93.29;99175.69;3340819;84;21029;-78
2023/01/05 04:03:04;;;;;;;3.62;3.10;;;;;;;7.78;93.31;99163.22;3284594;85;21194;-78
2023/01/05 04:08:00;;;;;;;3.58;3.12;;;;;;;7.79;93.10;99153.72;3248044;85;20949;-79
2023/01/05 04:12:52;;;;;;;3.08;2.77;;;;;;;7.77;93.05;99154.15;3296091;82;21192;-78
2023/01/05 04:17:44;;;;;;;4.62;3.12;;;;;;;7.73;93.00;99144.66;3430491;82;21003;-78
2023/01/05 04:22:36;;;;;;;3.05;2.70;;;;;;;7.73;93.00;99144.66;3398604;81;20957;-78
2023/01/05 04:27:27;;;;;;;2.50;2.05;;;;;;;7.76;93.05;99161.46;3422970;82;21464;-78
2023/01/05 04:32:18;;;;;;;2.30;2.10;;;;;;;7.76;93.34;99156.29;3408920;82;22067;-77
2023/01/05 04:37:09;;;;;;;2.02;1.82;;;;;;;7.72;92.94;99150.23;3406304;81;21045;-79
2023/01/05 04:42:01;;;;;;;1.62;1.40;;;;;;;7.72;92.89;99150.67;3447779;82;20932;-78
2023/01/05 04:46:53;;;;;;;1.27;1.17;;;;;;;7.69;92.78;99154.13;3446487;82;20987;-78
2023/01/05 04:51:46;;;;;;;2.02;1.50;;;;;;;7.70;92.95;99165.34;3454994;82;21092;-78
2023/01/05 04:56:37;;;;;;;2.02;1.45;;;;;;;7.63;92.91;99152.36;3413761;81;20887;-78
2023/01/05 05:01:29;;;;;;;1.82;1.57;;;;;;;7.64;92.85;99155.39;3419446;81;21233;-78
2023/01/05 05:06:21;;;;;;;1.57;1.20;;;;;;;7.62;92.63;99145.91;3475741;81;21481;-77
2023/01/05 05:11:13;;;;;;;1.35;1.05;;;;;;;7.58;92.39;99143.75;3365815;81;21505;-78
2023/01/05 05:16:05;;;;;;;2.08;1.87;;;;;;;7.56;92.70;99129.92;3456550;81;21435;-77
2023/01/05 05:20:57;;;;;;;1.62;1.52;;;;;;;7.54;93.15;99139.40;3415339;81;21038;-77
2023/01/05 05:25:51;;;;;;;2.05;1.85;;;;;;;7.54;93.15;99139.40;3442467;81;21031;-77
2023/01/05 05:30:43;;;;;;;2.25;2.05;;;;;;;7.56;93.13;99136.82;3470435;81;20988;-78
2023/01/05 05:35:34;;;;;;;3.85;2.00;;;;;;;7.57;93.21;99138.56;3429898;81;20912;-78
2023/01/05 05:40:25;;;;;;;3.17;2.33;;;;;;;7.56;93.22;99151.91;3377769;82;20941;-78
2023/01/05 05:45:16;;;;;;;3.47;2.40;;;;;;;7.60;93.35;99143.72;3366381;82;20995;-78
2023/01/05 05:50:08;;;;;;;2.33;2.12;;;;;;;7.60;93.29;99151.48;3424553;81;22564;-78
2023/01/05 05:55:00;;;;;;;2.62;2.30;;;;;;;7.60;93.24;99154.95;3407550;81;21047;-78
2023/01/05 05:59:51;;;;;;;3.12;2.70;;;;;;;7.58;93.26;99152.80;3419916;81;21038;-78
2023/01/05 06:04:42;;;;;;;2.60;2.27;;;;;;;7.59;93.11;99150.62;3431979;81;21540;-78
2023/01/05 06:09:33;;;;;;;2.30;2.08;;;;;;;7.56;92.88;99146.73;3439883;80;20971;-78
2023/01/05 06:14:25;;;;;;;2.65;1.82;;;;;;;7.51;92.73;99149.75;3439298;80;21829;-78
2023/01/05 06:19:16;;;;;;;3.60;1.95;;;;;;;7.49;92.36;99172.13;3447948;80;20932;-78
2023/01/05 06:24:07;;;;;;;2.50;1.85;;;;;;;7.49;92.36;99172.13;3437623;81;20972;-78
2023/01/05 06:28:58;;;;;;;2.10;1.40;;;;;;;7.48;92.36;99170.86;3452252;81;21156;-78
2023/01/05 06:33:49;;;;;;;1.72;1.62;;;;;;;7.47;92.25;99173.85;3434907;81;21521;-78
2023/01/05 06:38:40;;;;;;;1.67;1.40;;;;;;;7.47;92.23;99181.61;3393846;81;21067;-78
2023/01/05 06:43:31;;;;;;;3.12;1.95;;;;;;;7.48;92.07;99178.62;3452492;81;20952;-77
2023/01/05 06:48:22;;;;;;;3.08;2.20;;;;;;;7.49;92.04;99182.47;3417552;81;21249;-78
2023/01/05 06:53:13;;;;;;;2.02;1.92;;;;;;;7.52;92.00;99194.14;3442965;81;21655;-78
2023/01/05 06:58:04;;;;;;;2.33;1.98;;;;;;;7.55;91.89;99191.58;3484908;81;20931;-78
2023/01/05 07:02:55;;;;;;;3.47;2.10;;;;;;;7.58;91.85;99192.00;3402840;80;20967;-78
2023/01/05 07:07:46;;;;;;;3.50;2.60;;;;;;;7.59;91.78;99197.19;3469794;80;22154;-78
2023/01/05 07:12:38;;;;;;;2.17;1.85;;;;;;;7.61;92.06;99194.17;3492534;80;21190;-77
2023/01/05 07:17:29;;;;;;;3.80;2.20;;;;;;;7.63;91.79;99208.41;3428233;80;21237;-77
2023/01/05 07:22:20;;;;;;;2.83;2.27;;;;;;;7.63;91.88;99206.68;3464683;80;20901;-77
2023/01/05 07:27:12;;;;;;;3.77;2.58;;;;;;;7.63;91.90;99205.39;3480892;80;21153;-77
2023/01/05 07:32:03;;;;;;;5.15;2.83;;;;;;;7.68;92.13;99203.27;3448027;80;21950;-77
2023/01/05 07:36:55;;;;;;;3.80;2.90;;;;;;;7.72;92.02;99203.27;3432005;80;20983;-77
2023/01/05 07:41:46;;;;;;;2.92;2.52;;;;;;;7.75;91.97;99203.73;3468146;80;20959;-76
2023/01/05 07:46:37;;;;;;;3.40;3.05;;;;;;;7.75;92.16;99200.70;3498292;80;20959;-77
2023/01/05 07:51:28;;;;;;;3.33;3.02;;;;;;;7.74;92.31;99195.52;3448056;80;22008;-77
2023/01/05 07:56:19;;;;;;;3.20;2.90;;;;;;;7.75;92.33;99201.15;3483037;80;20947;-77
2023/01/05 08:01:13;;;;;;;3.90;3.00;;;;;;;7.75;92.47;99195.53;3446859;80;21509;-77
2023/01/05 08:06:14;;;;;;;6.45;2.92;;;;;;;7.78;92.46;99202.43;3486582;80;20944;-78
2023/01/05 08:11:08;;;;;;;6.30;3.10;;;;;;;7.82;92.46;99201.17;3476367;80;21016;-77
2023/01/05 08:15:59;;;;;;;3.77;3.05;;;;;;;7.88;92.25;99197.73;3469076;79;21673;-78
2023/01/05 08:20:53;;;;;;;4.33;3.10;;;;;;;7.94;92.41;99204.25;3500371;80;20971;-77
2023/01/05 08:25:44;;;;;;;3.80;3.02;;;;;;;7.98;92.09;99203.39;3456283;80;20960;-77
2023/01/05 08:30:35;;;;;;;4.58;3.22;;;;;;;8.02;91.94;99210.73;3432525;80;20955;-78
2023/01/05 08:35:26;;;;;;;5.50;3.70;;;;;;;8.03;91.84;99202.13;3477188;80;21518;-78
2023/01/05 08:40:17;;;;;;;3.72;2.50;;;;;;;8.03;91.85;99213.77;3459369;80;21164;-78
2023/01/05 08:45:10;;;;;;;3.70;2.15;;;;;;;8.06;91.72;99215.05;3494589;80;21757;-78
2023/01/05 08:50:01;;;;;;;7.45;4.70;;;;;;;8.12;91.32;99224.55;3423156;80;21521;-77
2023/01/05 08:54:52;;;;;;;2.77;2.12;;;;;;;8.15;91.18;99231.04;3509138;80;20948;-78
2023/01/05 08:59:43;;;;;;;2.95;2.15;;;;;;;8.14;91.03;99228.03;3508065;80;20925;-78
2023/01/05 09:04:34;;;;;;;4.92;2.77;;;;;;;8.10;91.04;99236.63;3514328;80;21409;-77
2023/01/05 09:09:25;;;;;;;6.97;3.77;;;;;;;8.08;91.06;99237.06;3433119;79;21034;-77
2023/01/05 09:14:17;;;;;;;2.98;2.67;;;;;;;8.08;91.21;99234.47;3496267;80;21608;-77
2023/01/05 09:19:09;;;;;;;5.85;2.83;;;;;;;8.04;91.09;99240.06;3438058;80;21003;-77
2023/01/05 09:24:00;;;;;;;3.55;3.22;;;;;;;8.14;90.98;99247.02;3455596;80;20991;-77
2023/01/05 09:28:52;;;;;;;5.58;3.60;;;;;;;8.16;91.01;99261.27;3452370;80;20923;-77
2023/01/05 09:33:44;;;;;;;8.10;3.22;;;;;;;8.16;90.80;99271.62;3527393;80;21512;-77
2023/01/05 09:38:36;;;;;;;6.87;2.60;;;;;;;8.14;90.10;99279.81;3444993;80;20991;-77
2023/01/05 09:43:35;;;;;;;5.08;2.85;;;;;;;8.15;89.79;99282.82;3477315;80;20909;-77
2023/01/05 09:48:28;;;;;;;4.83;2.25;;;;;;;8.19;89.08;99270.31;3481226;80;21011;-77
2023/01/05 09:53:25;;;;;;;3.10;1.65;;;;;;;8.19;88.08;99281.96;3502808;80;21109;-77
2023/01/05 09:58:21;;;;;;;1.67;1.43;;;;;;;8.26;87.55;99281.12;3492381;80;20975;-77
2023/01/05 10:03:17;;;;;;;3.87;1.90;;;;;;;8.43;86.61;99276.48;3499111;79;20984;-77
2023/01/05 10:08:26;;;;;;;3.45;1.35;;;;;;;8.61;86.40;99273.92;3480902;79;20889;-77
2023/01/05 10:13:30;;;;;;;2.55;1.27;;;;;;;8.70;86.04;99276.52;3463255;81;20948;-77
2023/01/05 10:18:26;;;;;;;2.10;1.30;;;;;;;8.69;85.13;99269.63;3492296;79;21585;-77
2023/01/05 10:23:56;;;;;;;3.27;1.70;;;;;;;8.75;84.04;99281.28;3482701;79;21442;-77
2023/01/05 10:29:12;;;;;;;2.20;1.47;;;;;;;8.86;84.89;99276.55;3307283;85;21435;-77
2023/01/05 10:34:09;;;;;;;3.75;1.80;;;;;;;8.87;84.14;99280.45;3175774;86;21514;-77
2023/01/05 10:39:22;;;;;;;2.60;2.40;;;;;;;9.03;84.07;99276.14;3264670;86;21019;-77
2023/01/05 10:44:45;;;;;;;3.75;2.33;;;;;;;9.18;83.96;99280.89;3306776;85;21284;-77
2023/01/05 10:49:37;;;;;;;3.52;2.30;;;;;;;9.31;83.67;99281.30;3308217;85;21130;-77
2023/01/05 10:54:47;;;;;;;3.90;2.47;;;;;;;9.08;83.53;99282.16;3283713;86;21054;-77
2023/01/05 10:59:58;;;;;;;6.17;2.98;;;;;;;8.95;83.73;99280.45;3287608;85;21479;-77
2023/01/05 11:04:50;;;;;;;6.90;2.30;;;;;;;8.94;83.79;99276.11;3259617;85;20989;-78
2023/01/05 11:09:44;;;;;;;5.25;2.95;;;;;;;8.86;83.72;99283.89;3289578;85;21127;-78
2023/01/05 11:14:42;;;;;;;6.30;3.08;;;;;;;8.92;83.90;99281.29;3304525;85;20977;-77
2023/01/05 11:19:44;;;;;;;8.05;2.85;;;;;;;9.37;83.15;99282.58;3318869;85;21407;-78
2023/01/05 11:24:35;;;;;;;5.00;3.50;;;;;;;9.52;81.98;99279.12;3348186;84;21571;-77
2023/01/05 11:29:28;;;;;;;5.53;3.58;;;;;;;9.44;82.14;99279.55;3335384;84;20993;-77
2023/01/05 11:34:31;;;;;;;4.70;2.60;;;;;;;9.30;81.54;99279.56;3358255;83;21984;-77
2023/01/05 11:39:36;;;;;;;6.58;3.25;;;;;;;9.09;81.51;99284.34;3371837;81;21523;-77
2023/01/05 11:44:28;;;;;;;3.72;2.92;;;;;;;8.98;81.63;99281.75;3432669;82;21042;-77
2023/01/05 11:49:19;;;;;;;3.40;2.92;;;;;;;8.81;81.62;99288.64;3397357;82;21517;-77
2023/01/05 11:54:35;;;;;;;7.78;3.05;;;;;;;8.73;82.39;99288.20;3442213;82;20952;-77
2023/01/05 11:59:29;;;;;;;7.80;3.10;;;;;;;8.60;82.87;99294.20;3353806;84;21034;-76
2023/01/05 12:04:34;;;;;;;4.58;3.00;;;;;;;9.15;82.44;99289.52;3344807;84;21029;-77
2023/01/05 12:09:37;;;;;;;8.23;2.70;;;;;;;9.40;82.07;99301.19;3374362;84;21562;-77
2023/01/05 12:14:42;;;;;;;5.62;3.33;;;;;;;9.40;81.68;99291.66;3356121;83;21018;-77
2023/01/05 12:19:58;;;;;;;10.25;3.27;;;;;;;9.17;82.26;99296.86;3353080;83;21519;-77
2023/01/05 12:25:12;;;;;;;7.60;2.92;;;;;;;8.95;82.81;99303.77;3350876;84;21661;-77
2023/01/05 12:30:36;;;;;;;4.97;2.85;;;;;;;8.77;83.17;99302.88;3378117;84;21030;-77
2023/01/05 12:35:54;;;;;;;7.58;1.92;;;;;;;8.65;83.19;99302.85;3450552;81;20943;-77
2023/01/05 12:41:09;;;;;;;4.67;2.37;;;;;;;8.51;82.48;99305.84;3481232;80;21516;-77
2023/01/05 12:46:32;;;;;;;7.05;2.33;;;;;;;8.45;82.40;99304.55;3488098;81;20995;-77
2023/01/05 12:51:35;;;;;;;7.03;1.90;;;;;;;8.35;81.75;99309.67;3464788;80;21474;-77
2023/01/05 12:56:46;;;;;;;7.37;2.00;;;;;;;8.25;81.35;99301.42;3501741;81;20986;-77
2023/01/05 13:01:52;;;;;;;5.72;1.95;;;;;;;8.17;81.45;99300.52;3459256;81;20995;-77
2023/01/05 13:06:47;;;;;;;5.60;2.17;;;;;;;8.13;81.00;99306.55;3462483;81;21509;-78
2023/01/05 13:11:52;;;;;;;6.35;2.10;;;;;;;8.10;80.81;99311.30;3489780;81;20987;-77
2023/01/05 13:17:00;;;;;;;6.15;2.55;;;;;;;8.08;80.86;99314.72;3493933;80;21549;-77
2023/01/05 13:21:53;;;;;;;5.87;2.20;;;;;;;8.04;81.16;99310.39;3494609;80;20995;-77
2023/01/05 13:26:44;;;;;;;7.90;2.72;;;;;;;7.97;81.48;99316.81;3456626;81;20937;-77
2023/01/05 13:32:09;;;;;;;6.22;3.02;;;;;;;7.86;81.57;99323.67;3481633;80;20994;-76
2023/01/05 13:37:38;;;;;;;6.62;1.75;;;;;;;7.75;81.95;99332.66;3476363;80;20972;-77
2023/01/05 13:43:21;;;;;;;4.20;1.45;;;;;;;7.59;81.67;99339.45;3458851;80;21801;-78
2023/01/05 13:48:49;;;;;;;4.03;1.42;;;;;;;7.43;81.51;99349.25;3464423;80;21045;-78
2023/01/05 13:53:44;;;;;;;3.20;1.47;;;;;;;7.29;81.92;99346.98;3500544;80;20983;-77
2023/01/05 13:58:43;;;;;;;3.15;1.40;;;;;;;7.20;82.13;99355.09;3449021;81;21508;-78
2023/01/05 14:03:39;;;;;;;3.40;1.72;;;;;;;7.15;82.24;99360.64;3463627;81;21159;-77
2023/01/05 14:08:35;;;;;;;2.75;1.52;;;;;;;7.09;82.25;99356.72;3459329;81;21405;-77
2023/01/05 14:13:46;;;;;;;2.98;1.42;;;;;;;7.06;82.46;99363.14;3438788;81;20969;-77
2023/01/05 14:18:51;;;;;;;4.42;1.60;;;;;;;7.04;82.56;99362.27;3448032;81;20924;-79
2023/01/05 14:23:48;;;;;;;5.90;2.33;;;;;;;6.99;82.54;99359.66;3412932;80;21490;-76
2023/01/05 14:28:43;;;;;;;4.43;1.67;;;;;;;6.97;82.57;99369.08;3472918;81;21001;-76
2023/01/05 14:33:48;;;;;;;6.33;2.08;;;;;;;6.96;82.37;99369.09;3460295;81;21000;-76
2023/01/05 14:38:45;;;;;;;6.75;2.22;;;;;;;6.94;82.23;99370.77;3428656;80;20961;-76
2023/01/05 14:43:36;;;;;;;8.27;1.93;;;;;;;6.93;82.40;99371.20;3412073;81;20960;-76
2023/01/05 14:48:38;;;;;;;3.90;1.75;;;;;;;6.90;82.63;99375.48;3421579;82;20997;-76
2023/01/05 14:53:43;;;;;;;5.28;2.52;;;;;;;6.83;82.59;99375.83;3434958;82;20976;-76
2023/01/05 14:58:43;;;;;;;5.92;1.90;;;;;;;6.86;82.37;99384.48;3384394;80;21091;-77
2023/01/05 15:04:06;;;;;;;3.83;2.85;;;;;;;6.84;82.22;99370.69;3459119;81;21023;-76
2023/01/05 15:09:41;;;;;;;2.98;2.02;;;;;;;6.84;82.22;99370.69;3443073;81;21002;-77
2023/01/05 15:14:50;;;;;;;5.58;1.95;;;;;;;6.92;82.12;99380.23;3465430;80;21513;-77
2023/01/05 15:19:59;;;;;;;3.65;2.00;;;;;;;6.94;82.39;99386.27;3496092;80;21599;-77
2023/01/05 15:25:08;;;;;;;4.78;2.35;;;;;;;6.92;82.42;99377.65;3457805;80;21276;-77
2023/01/05 15:30:47;;;;;;;4.17;2.35;;;;;;;6.95;82.46;99383.71;3478319;80;20952;-77
2023/01/05 15:35:50;;;;;;;3.40;1.77;;;;;;;6.93;82.64;99378.95;3488418;81;20997;-77
2023/01/05 15:40:41;;;;;;;5.05;2.72;;;;;;;6.92;82.78;99375.06;3453027;80;21522;-76
2023/01/05 15:45:48;;;;;;;5.90;2.40;;;;;;;6.93;82.69;99376.81;3452195;80;21006;-76
2023/01/05 15:50:51;;;;;;;6.08;2.45;;;;;;;6.86;83.71;99370.70;3452339;80;20940;-75
2023/01/05 15:55:45;;;;;;;3.80;2.65;;;;;;;6.86;83.71;99370.70;3462207;80;21020;-75
2023/01/05 16:00:36;;;;;;;4.40;2.62;;;;;;;6.84;83.71;99383.60;3490654;80;21544;-75
2023/01/05 16:05:36;;;;;;;5.12;2.67;;;;;;;6.79;83.92;99390.43;3477814;80;21525;-76
2023/01/05 16:10:37;;;;;;;6.15;2.50;;;;;;;6.78;84.06;99390.01;3484343;80;20940;-74
2023/01/05 16:15:33;;;;;;;4.45;2.33;;;;;;;6.75;84.22;99396.42;3539635;80;21134;-76
2023/01/05 16:20:26;;;;;;;3.83;2.40;;;;;;;6.74;84.56;99406.73;3429837;80;20943;-76
2023/01/05 16:25:31;;;;;;;4.55;2.95;;;;;;;6.67;84.96;99411.84;3435218;80;20917;-76
2023/01/05 16:30:39;;;;;;;4.92;2.92;;;;;;;6.67;84.96;99411.84;3466897;80;21770;-76
2023/01/05 16:35:52;;;;;;;4.00;2.77;;;;;;;6.62;85.09;99409.62;3459197;80;20959;-76
2023/01/05 16:41:09;;;;;;;4.83;2.40;;;;;;;6.54;85.41;99442.66;3479306;80;21974;-76
2023/01/05 16:46:17;;;;;;;1.77;1.50;;;;;;;6.54;85.41;99442.66;3479877;80;20955;-76
2023/01/05 16:51:22;;;;;;;3.77;1.90;;;;;;;6.45;85.24;99441.67;3461186;80;20976;-76
2023/01/05 16:56:36;;;;;;;4.08;2.70;;;;;;;6.38;85.06;99459.66;3503252;80;20948;-76
2023/01/05 17:01:41;;;;;;;3.80;1.90;;;;;;;6.25;85.11;99448.30;3489816;80;21079;-76
2023/01/05 17:06:32;;;;;;;3.70;2.52;;;;;;;6.26;84.80;99473.24;3444049;80;21560;-76
2023/01/05 17:11:32;;;;;;;2.15;1.75;;;;;;;6.21;84.79;99496.43;3440127;80;21026;-77
2023/01/05 17:16:23;;;;;;;5.10;1.85;;;;;;;6.15;84.23;99527.28;3433751;80;20927;-76
2023/01/05 17:21:19;;;;;;;1.82;1.35;;;;;;;5.93;83.45;99536.37;3414457;80;21513;-77
2023/01/05 17:26:17;;;;;;;2.85;1.72;;;;;;;5.93;83.45;99536.37;3430981;80;20916;-77
2023/01/05 17:31:08;;;;;;;2.58;1.50;;;;;;;5.92;83.35;99551.42;3381214;80;22035;-76
2023/01/05 17:36:02;;;;;;;3.37;1.55;;;;;;;5.91;83.31;99562.56;3363499;82;21018;-76
2023/01/05 17:40:53;;;;;;;3.35;1.57;;;;;;;5.91;83.18;99571.59;3354112;81;20955;-77
2023/01/05 17:45:44;;;;;;;2.77;1.80;;;;;;;5.90;83.12;99574.61;3430037;82;21010;-76
2023/01/05 17:50:36;;;;;;;2.52;2.08;;;;;;;5.91;83.13;99592.23;3383137;81;21228;-76
2023/01/05 17:55:29;;;;;;;2.27;1.72;;;;;;;5.89;83.42;99604.25;3407665;82;22163;-76
2023/01/05 18:00:23;;;;;;;2.02;1.65;;;;;;;5.88;83.48;99621.84;3424865;82;20971;-77
2023/01/05 18:05:15;;;;;;;2.25;1.47;;;;;;;5.85;83.56;99632.12;3401651;81;21569;-76
2023/01/05 18:10:11;;;;;;;1.50;1.40;;;;;;;5.78;83.62;99634.11;3458913;79;21438;-77
2023/01/05 18:15:03;;;;;;;1.63;1.50;;;;;;;5.70;83.95;99641.71;3461671;81;20960;-76
2023/01/05 18:19:54;;;;;;;1.98;1.87;;;;;;;5.64;83.98;99651.49;3449439;79;21042;-76
2023/01/05 18:24:46;;;;;;;2.58;1.85;;;;;;;5.61;84.44;99660.45;3477936;80;21627;-76
2023/01/05 18:29:39;;;;;;;2.67;2.17;;;;;;;5.57;84.46;99680.57;3481370;80;21426;-76
2023/01/05 18:34:31;;;;;;;2.87;2.20;;;;;;;5.54;84.49;99684.37;3497924;80;21000;-76
2023/01/05 18:39:24;;;;;;;2.65;1.95;;;;;;;5.53;84.34;99699.41;3470432;79;21445;-76
2023/01/05 18:44:16;;;;;;;2.70;1.85;;;;;;;5.52;84.19;99696.36;3454383;81;21141;-76
2023/01/05 18:49:07;;;;;;;2.27;1.65;;;;;;;5.51;83.61;99714.84;3486659;79;21023;-76
2023/01/05 18:53:59;;;;;;;2.52;1.90;;;;;;;5.51;83.61;99714.84;3439355;81;20979;-76
2023/01/05 18:58:52;;;;;;;2.15;1.62;;;;;;;5.51;83.36;99741.05;3459311;81;21004;-76
2023/01/05 19:03:44;;;;;;;3.58;1.82;;;;;;;5.52;82.97;99740.20;3441846;80;20952;-77
2023/01/05 19:08:36;;;;;;;4.50;1.92;;;;;;;5.52;82.97;99740.20;3505211;80;21549;-76
2023/01/05 19:13:27;;;;;;;1.30;1.20;;;;;;;5.51;82.89;99757.38;3434754;81;21707;-76
2023/01/05 19:18:18;;;;;;;2.42;1.70;;;;;;;5.45;83.16;99765.39;3411242;80;21061;-76
2023/01/05 19:23:10;;;;;;;2.27;2.05;;;;;;;5.38;83.31;99772.53;3501568;81;21740;-76
2023/01/05 19:28:01;;;;;;;2.58;1.90;;;;;;;5.38;83.58;99775.11;3481993;80;21022;-75
2023/01/05 19:32:52;;;;;;;2.60;1.52;;;;;;;5.33;83.36;99788.77;3468900;81;21039;-76
2023/01/05 19:37:44;;;;;;;4.35;2.25;;;;;;;5.33;83.14;99810.69;3433521;81;21627;-76
2023/01/05 19:42:35;;;;;;;3.47;2.85;;;;;;;5.34;82.91;99811.55;3470063;81;20982;-76
2023/01/05 19:47:26;;;;;;;5.00;2.72;;;;;;;5.28;82.33;99826.45;3468408;80;21576;-76
2023/01/05 19:52:17;;;;;;;4.97;4.42;;;;;;;5.23;82.32;99846.09;3472087;81;21005;-76
2023/01/05 19:57:08;;;;;;;2.85;2.55;;;;;;;5.19;82.40;99858.45;3452763;81;21797;-76
2023/01/05 20:02:02;;;;;;;3.83;2.58;;;;;;;5.09;82.41;99883.52;3472139;81;21000;-75
2023/01/05 20:06:53;;;;;;;3.12;2.25;;;;;;;4.96;82.02;99885.78;3402948;81;21237;-75
2023/01/05 20:11:49;;;;;;;2.83;2.15;;;;;;;4.88;81.73;99894.13;3406684;81;21247;-76
2023/01/05 20:16:45;;;;;;;3.80;3.12;;;;;;;4.84;81.77;99916.36;3356299;80;22467;-77
2023/01/05 20:21:36;;;;;;;4.22;3.30;;;;;;;4.78;81.30;99930.38;3401016;81;21005;-77
2023/01/05 20:26:30;;;;;;;3.95;3.00;;;;;;;4.73;81.06;99944.39;3394581;82;21571;-75
2023/01/05 20:31:29;;;;;;;3.60;3.05;;;;;;;4.70;80.65;99970.47;3407275;81;21519;-76
2023/01/05 20:36:22;;;;;;;4.45;3.40;;;;;;;4.62;80.62;99974.55;3439802;80;20973;-76
2023/01/05 20:41:24;;;;;;;4.80;3.35;;;;;;;4.59;80.61;99989.05;3421885;82;21031;-76
2023/01/05 20:46:18;;;;;;;2.98;2.75;;;;;;;4.55;80.63;100015.55;3378165;82;21176;-76
2023/01/05 20:51:12;;;;;;;2.95;2.75;;;;;;;4.50;81.10;100018.39;3392173;82;20969;-76
2023/01/05 20:56:07;;;;;;;2.95;2.47;;;;;;;4.41;81.21;100036.13;3378220;82;21569;-76
2023/01/05 21:00:59;;;;;;;2.95;2.50;;;;;;;4.32;81.19;100051.30;3419136;82;20946;-76
2023/01/05 21:05:50;;;;;;;2.52;2.33;;;;;;;4.18;81.06;100065.87;3468751;80;20973;-76
2023/01/05 21:10:42;;;;;;;2.00;1.57;;;;;;;4.07;80.67;100085.23;3440632;80;21018;-75
2023/01/05 21:15:33;;;;;;;1.50;1.40;;;;;;;3.98;80.42;100099.95;3399382;80;20942;-75
2023/01/05 21:20:26;;;;;;;2.70;2.50;;;;;;;3.93;80.71;100105.77;3475592;81;20978;-76
2023/01/05 21:25:17;;;;;;;4.70;3.08;;;;;;;3.93;80.85;100119.49;3444778;81;20992;-76
2023/01/05 21:30:10;;;;;;;1.85;1.75;;;;;;;3.96;80.76;100145.33;3485574;80;20968;-76
2023/01/05 21:35:03;;;;;;;2.55;2.35;;;;;;;3.91;80.63;100154.58;3427328;81;21682;-76
2023/01/05 21:39:55;;;;;;;6.28;4.97;;;;;;;3.87;80.61;100172.44;3480791;81;20975;-75
2023/01/05 21:44:46;;;;;;;5.70;4.10;;;;;;;3.81;79.92;100180.39;3480794;81;20964;-76
2023/01/05 21:49:37;;;;;;;5.60;5.03;;;;;;;3.73;80.17;100201.09;3441220;81;21026;-76
2023/01/05 21:59:39;;;;;;;3.62;2.87;;;;;;;3.65;79.70;100226.05;3485292;81;21015;-76
2023/01/05 22:04:30;;;;;;;3.25;2.83;;;;;;;3.57;79.55;100251.48;3454938;80;21246;-76
2023/01/05 22:09:21;;;;;;;11.33;5.62;;;;;;;3.51;79.53;100255.13;3403398;80;21483;-76
2023/01/05 22:14:13;;;;;;;8.18;5.03;;;;;;;3.50;79.84;100275.20;3486551;81;20941;-75
2023/01/05 22:19:04;;;;;;;12.25;6.58;;;;;;;3.46;79.96;100286.20;3429557;80;20952;-76
2023/01/05 22:23:55;;;;;;;7.75;5.17;;;;;;;3.32;79.70;100305.79;3391307;81;21404;-76
2023/01/05 22:28:48;;;;;;;3.27;2.40;;;;;;;3.24;79.50;100318.76;3385052;81;21001;-76
2023/01/05 22:33:43;;;;;;;2.10;1.90;;;;;;;3.06;79.24;100334.30;3484039;80;20987;-76
2023/01/05 22:38:39;;;;;;;6.25;4.22;;;;;;;2.93;79.51;100345.73;3453339;80;20972;-76
2023/01/05 22:43:31;;;;;;;12.47;6.67;;;;;;;2.83;79.17;100345.77;3459159;81;21476;-76
2023/01/05 22:48:22;;;;;;;8.03;4.87;;;;;;;2.75;79.37;100356.52;3434088;80;21509;-76
2023/01/05 22:53:13;;;;;;;9.08;6.28;;;;;;;2.69;79.39;100371.68;3438571;80;21034;-76
2023/01/05 22:58:05;;;;;;;10.03;6.03;;;;;;;2.68;79.53;100381.05;3383369;81;37408;-76
2023/01/05 23:02:59;;;;;;;2.60;2.27;;;;;;;2.65;79.35;100397.20;3441179;81;21493;-76
2023/01/05 23:07:50;;;;;;;2.85;2.40;;;;;;;2.61;79.38;100409.45;3487458;81;20928;-76
2023/01/05 23:12:42;;;;;;;4.70;3.70;;;;;;;2.61;79.42;100432.55;3476197;80;21172;-76
2023/01/05 23:17:32;;;;;;;2.55;2.35;;;;;;;2.59;79.46;100440.56;3507377;81;21568;-76
2023/01/05 23:22:23;;;;;;;3.27;2.70;;;;;;;2.56;79.48;100450.71;3461495;81;21742;-76
2023/01/05 23:27:14;;;;;;;3.35;2.62;;;;;;;2.55;79.42;100461.77;3448554;81;22139;-76
2023/01/05 23:32:06;;;;;;;2.95;2.30;;;;;;;2.51;79.23;100487.25;3442693;81;21035;-76
2023/01/05 23:36:57;;;;;;;2.80;2.52;;;;;;;2.46;78.72;100501.14;3426487;81;21509;-76
2023/01/05 23:41:48;;;;;;;2.83;2.58;;;;;;;2.44;79.04;100511.74;3442856;80;20980;-76
2023/01/05 23:46:40;;;;;;;2.47;1.95;;;;;;;2.46;79.10;100530.66;3487170;80;20971;-76
2023/01/05 23:51:31;;;;;;;2.60;2.40;;;;;;;2.46;79.10;100530.66;3477336;81;21343;-76
2023/01/05 23:56:28;;;;;;;2.50;1.98;;;;;;;2.43;78.77;100535.63;3460381;80;20960;-76
